Time;durP1;ratioP1;P1;durP2;ratioP2;P2;SDS_P1;SDS_P2;PMS_P1;PMS_P2;Temp;Humidity;BMP_temperature;BMP_pressure;BME280_temperature;BME280_humidity;BME280_pressure;Samples;Min_cycle;Max_cycle;Signal;HPM_P1;HPM_P2
2022/07/23 00:01:37;;;;;;;16.30;7.10;;;;;;;;;;4895668;29;20056;-78
2022/07/23 00:04:03;;;;;;;10.45;6.93;;;;;;;;;;4881904;29;20541;-78
2022/07/23 00:06:29;;;;;;;8.55;6.45;;;;;;;;;;4878634;29;20203;-79
2022/07/23 00:08:54;;;;;;;7.88;7.07;;;;;;;;;;4878677;29;20052;-78
2022/07/23 00:11:21;;;;;;;13.10;7.25;;;;;;;;;;4861602;29;20037;-79
2022/07/23 00:13:47;;;;;;;20.45;8.85;;;;;;;;;;4878677;29;20053;-78
2022/07/23 00:16:13;;;;;;;8.75;6.97;;;;;;;;;;4878241;29;20048;-79
2022/07/23 00:18:39;;;;;;;11.57;6.55;;;;;;;;;;4878034;29;20448;-79
2022/07/23 00:21:05;;;;;;;14.23;6.82;;;;;;;;;;4878381;29;20053;-76
2022/07/23 00:23:31;;;;;;;7.60;6.28;;;;;;;;;;4877527;29;20562;-77
2022/07/23 00:25:57;;;;;;;11.02;6.75;;;;;;;;;;4861661;29;20061;-78
2022/07/23 00:28:23;;;;;;;8.77;5.82;;;;;;;;;;4860999;29;20047;-78
2022/07/23 00:30:49;;;;;;;11.38;6.75;;;;;;;;;;4877977;29;20045;-77
2022/07/23 00:33:15;;;;;;;16.65;6.93;;;;;;;;;;4861062;29;20572;-79
2022/07/23 00:35:41;;;;;;;11.85;6.95;;;;;;;;;;4877706;29;20049;-78
2022/07/23 00:38:09;;;;;;;14.60;7.47;;;;;;;;;;4877676;29;20048;-78
2022/07/23 00:40:35;;;;;;;12.43;7.00;;;;;;;;;;4860805;29;20057;-78
2022/07/23 00:43:01;;;;;;;15.02;7.10;;;;;;;;;;4845706;29;20132;-77
2022/07/23 00:45:27;;;;;;;12.15;6.45;;;;;;;;;;4877469;29;20539;-78
2022/07/23 00:47:53;;;;;;;16.67;7.70;;;;;;;;;;4860975;29;20067;-76
2022/07/23 00:50:19;;;;;;;11.32;8.05;;;;;;;;;;4877748;29;20048;-77
2022/07/23 00:52:46;;;;;;;19.13;8.10;;;;;;;;;;4860756;29;20049;-78
2022/07/23 00:55:11;;;;;;;11.93;7.20;;;;;;;;;;4861091;29;20076;-78
2022/07/23 00:57:37;;;;;;;11.90;7.25;;;;;;;;;;4882658;29;20126;-78
2022/07/23 01:00:04;;;;;;;13.52;7.68;;;;;;;;;;4883601;29;20057;-79
2022/07/23 01:02:30;;;;;;;9.68;7.32;;;;;;;;;;4877227;29;20563;-79
2022/07/23 01:04:56;;;;;;;14.80;7.50;;;;;;;;;;4877422;29;20211;-78
2022/07/23 01:07:22;;;;;;;13.50;7.25;;;;;;;;;;4860846;29;20506;-78
2022/07/23 01:09:47;;;;;;;12.13;6.68;;;;;;;;;;4860396;29;20089;-78
2022/07/23 01:12:14;;;;;;;8.07;5.80;;;;;;;;;;4861130;29;20056;-78
2022/07/23 01:14:40;;;;;;;10.93;6.30;;;;;;;;;;4860462;29;20048;-78
2022/07/23 01:17:06;;;;;;;12.75;6.40;;;;;;;;;;4860642;29;20041;-77
2022/07/23 01:19:32;;;;;;;11.43;6.40;;;;;;;;;;4860331;29;20541;-79
2022/07/23 01:21:57;;;;;;;8.25;6.50;;;;;;;;;;4860227;29;20105;-78
2022/07/23 01:24:23;;;;;;;11.40;6.35;;;;;;;;;;4860777;29;20052;-78
2022/07/23 01:26:58;;;;;;;7.75;6.15;;;;;;;;;;4860342;29;20052;-77
2022/07/23 01:29:24;;;;;;;14.82;5.80;;;;;;;;;;4845541;29;20045;-78
2022/07/23 01:31:50;;;;;;;18.52;5.88;;;;;;;;;;4860738;29;20538;-78
2022/07/23 01:34:16;;;;;;;8.43;4.95;;;;;;;;;;4877465;29;20045;-78
2022/07/23 01:36:43;;;;;;;9.15;6.57;;;;;;;;;;4877122;29;20060;-78
2022/07/23 01:39:10;;;;;;;9.05;6.53;;;;;;;;;;4860830;29;20093;-78
2022/07/23 01:41:36;;;;;;;15.70;7.70;;;;;;;;;;4860160;29;20049;-77
2022/07/23 01:44:03;;;;;;;12.68;6.95;;;;;;;;;;4863767;29;20053;-77
2022/07/23 01:46:29;;;;;;;11.52;6.93;;;;;;;;;;4874240;29;20045;-77
2022/07/23 01:48:55;;;;;;;9.82;6.45;;;;;;;;;;4873648;29;20041;-77
2022/07/23 01:51:59;;;;;;;10.10;6.25;;;;;;;;;;4877959;29;20055;-78
2022/07/23 01:54:26;;;;;;;7.38;5.80;;;;;;;;;;4876153;29;20044;-77
2022/07/23 01:56:52;;;;;;;6.78;5.55;;;;;;;;;;4848052;29;20043;-79
2022/07/23 01:59:18;;;;;;;5.97;5.00;;;;;;;;;;4860322;29;20060;-77
2022/07/23 02:01:45;;;;;;;7.30;5.97;;;;;;;;;;4860244;29;20049;-78
2022/07/23 02:04:11;;;;;;;7.57;5.82;;;;;;;;;;4876455;29;20068;-78
2022/07/23 02:06:36;;;;;;;13.43;7.03;;;;;;;;;;4859812;29;20086;-79
2022/07/23 02:09:03;;;;;;;7.97;6.25;;;;;;;;;;4876940;29;20049;-78
2022/07/23 02:11:29;;;;;;;9.52;6.47;;;;;;;;;;4876558;29;20045;-79
2022/07/23 02:13:55;;;;;;;12.27;6.88;;;;;;;;;;4860068;29;20048;-79
2022/07/23 02:16:21;;;;;;;11.93;6.38;;;;;;;;;;4860029;29;20052;-78
2022/07/23 02:18:46;;;;;;;12.60;6.38;;;;;;;;;;4876265;29;20445;-77
2022/07/23 02:21:12;;;;;;;7.30;6.05;;;;;;;;;;4877020;29;20053;-77
2022/07/23 02:23:38;;;;;;;10.35;5.90;;;;;;;;;;4876489;29;20037;-78
2022/07/23 02:26:04;;;;;;;13.52;5.60;;;;;;;;;;4860467;29;20052;-77
2022/07/23 02:28:30;;;;;;;9.52;5.57;;;;;;;;;;4859786;29;20144;-77
2022/07/23 02:30:57;;;;;;;9.35;5.40;;;;;;;;;;4876645;29;20057;-77
2022/07/23 02:33:23;;;;;;;8.50;6.13;;;;;;;;;;4876839;29;20052;-78
2022/07/23 02:35:49;;;;;;;14.88;7.57;;;;;;;;;;4844538;29;20049;-77
2022/07/23 02:38:16;;;;;;;20.23;7.30;;;;;;;;;;4864461;29;20057;-78
2022/07/23 02:40:42;;;;;;;8.90;7.10;;;;;;;;;;4879870;29;20051;-77
2022/07/23 02:43:08;;;;;;;15.07;6.97;;;;;;;;;;4860083;29;20052;-78
2022/07/23 02:45:34;;;;;;;14.50;7.80;;;;;;;;;;4859846;29;20407;-80
2022/07/23 02:48:00;;;;;;;9.77;7.10;;;;;;;;;;4859868;29;20514;-76
2022/07/23 02:50:26;;;;;;;12.68;7.00;;;;;;;;;;4859805;29;20041;-77
2022/07/23 02:52:55;;;;;;;13.45;7.53;;;;;;;;;;4859713;29;20045;-76
2022/07/23 02:55:23;;;;;;;11.73;6.70;;;;;;;;;;4844120;29;20041;-79
2022/07/23 02:57:49;;;;;;;15.73;6.90;;;;;;;;;;4859087;29;20049;-78
2022/07/23 03:00:15;;;;;;;8.55;6.60;;;;;;;;;;4876103;29;20057;-78
2022/07/23 03:02:41;;;;;;;10.45;6.78;;;;;;;;;;4875845;29;20045;-78
2022/07/23 03:05:07;;;;;;;10.13;7.07;;;;;;;;;;4859556;29;20061;-78
2022/07/23 03:07:34;;;;;;;8.57;7.32;;;;;;;;;;4861963;29;20151;-78
2022/07/23 03:10:00;;;;;;;11.38;7.28;;;;;;;;;;4862481;29;20127;-77
2022/07/23 03:12:27;;;;;;;9.07;6.68;;;;;;;;;;4862439;29;20041;-77
2022/07/23 03:14:52;;;;;;;10.88;7.30;;;;;;;;;;4862258;29;20108;-78
2022/07/23 03:17:19;;;;;;;12.48;7.03;;;;;;;;;;4879153;29;20040;-78
2022/07/23 03:19:46;;;;;;;11.88;7.13;;;;;;;;;;4862254;29;20060;-78
2022/07/23 03:22:12;;;;;;;7.85;6.78;;;;;;;;;;4862472;29;20128;-77
2022/07/23 03:24:53;;;;;;;12.52;7.00;;;;;;;;;;4861847;29;20113;-78
2022/07/23 03:27:22;;;;;;;10.93;6.63;;;;;;;;;;4861916;29;20040;-75
2022/07/23 03:29:48;;;;;;;20.85;7.53;;;;;;;;;;4878698;29;20411;-77
2022/07/23 03:32:14;;;;;;;11.07;6.78;;;;;;;;;;4861946;29;20510;-76
2022/07/23 03:34:39;;;;;;;17.75;7.30;;;;;;;;;;4846150;29;20084;-78
2022/07/23 03:37:06;;;;;;;8.23;7.13;;;;;;;;;;4878522;29;20144;-78
2022/07/23 03:39:32;;;;;;;9.32;7.07;;;;;;;;;;4862114;29;20064;-78
2022/07/23 03:41:57;;;;;;;11.60;7.10;;;;;;;;;;4878624;29;20052;-78
2022/07/23 03:44:23;;;;;;;12.60;6.95;;;;;;;;;;4885985;29;20044;-77
2022/07/23 03:46:49;;;;;;;14.48;7.18;;;;;;;;;;4888626;29;20049;-78
2022/07/23 03:49:15;;;;;;;12.57;6.95;;;;;;;;;;4861781;29;20053;-75
2022/07/23 03:51:41;;;;;;;8.07;7.00;;;;;;;;;;4861653;29;20060;-77
2022/07/23 03:54:07;;;;;;;9.57;7.50;;;;;;;;;;4878022;29;20510;-78
2022/07/23 03:56:33;;;;;;;7.00;6.40;;;;;;;;;;4861563;29;20052;-76
2022/07/23 03:58:59;;;;;;;9.52;6.80;;;;;;;;;;4861369;29;20605;-78
2022/07/23 04:01:25;;;;;;;8.88;6.95;;;;;;;;;;4861507;29;20089;-77
2022/07/23 04:03:51;;;;;;;7.90;6.35;;;;;;;;;;4845574;29;20056;-79
2022/07/23 04:06:17;;;;;;;8.90;6.93;;;;;;;;;;4861733;29;20141;-78
2022/07/23 04:08:43;;;;;;;9.25;7.55;;;;;;;;;;4845610;29;20073;-77
2022/07/23 04:11:09;;;;;;;10.93;7.15;;;;;;;;;;4878179;29;20052;-77
2022/07/23 04:13:35;;;;;;;11.40;6.97;;;;;;;;;;4860950;29;20063;-76
2022/07/23 04:16:03;;;;;;;11.90;7.72;;;;;;;;;;4861512;29;20060;-78
2022/07/23 04:18:29;;;;;;;14.57;7.07;;;;;;;;;;4862861;29;20767;-79
2022/07/23 04:21:04;;;;;;;7.63;6.85;;;;;;;;;;4864386;29;20061;-78
2022/07/23 04:23:30;;;;;;;13.93;7.78;;;;;;;;;;4861134;29;20044;-78
2022/07/23 04:25:56;;;;;;;11.98;7.38;;;;;;;;;;4860941;29;20049;-80
2022/07/23 04:28:22;;;;;;;7.68;7.03;;;;;;;;;;4855263;29;20061;-77
2022/07/23 04:30:48;;;;;;;13.27;7.57;;;;;;;;;;4842417;29;20037;-78
2022/07/23 04:33:15;;;;;;;9.57;7.20;;;;;;;;;;4873609;29;20081;-77
2022/07/23 04:35:42;;;;;;;12.27;6.82;;;;;;;;;;4842774;29;20091;-78
2022/07/23 04:38:18;;;;;;;13.00;7.57;;;;;;;;;;4859547;29;20051;-78
2022/07/23 04:40:45;;;;;;;15.95;7.47;;;;;;;;;;4842697;29;20109;-79
2022/07/23 04:43:11;;;;;;;16.45;8.02;;;;;;;;;;4848655;29;20045;-78
2022/07/23 04:45:44;;;;;;;17.85;8.43;;;;;;;;;;4854998;29;20060;-79
2022/07/23 04:48:10;;;;;;;14.52;8.43;;;;;;;;;;4849099;29;20034;-78
2022/07/23 04:50:37;;;;;;;20.45;9.45;;;;;;;;;;4857496;29;20052;-80
2022/07/23 04:53:04;;;;;;;14.82;8.10;;;;;;;;;;4858877;29;20049;-79
2022/07/23 04:55:30;;;;;;;14.75;7.70;;;;;;;;;;4842407;29;20057;-78
2022/07/23 04:57:57;;;;;;;11.63;8.40;;;;;;;;;;4841622;29;20049;-78
2022/07/23 05:00:22;;;;;;;10.63;8.07;;;;;;;;;;4841944;29;20558;-77
2022/07/23 05:02:48;;;;;;;11.38;7.18;;;;;;;;;;4872515;29;20077;-79
2022/07/23 05:05:15;;;;;;;11.07;6.90;;;;;;;;;;4841912;29;20144;-78
2022/07/23 05:07:42;;;;;;;8.63;6.70;;;;;;;;;;4841569;29;20081;-78
2022/07/23 05:10:08;;;;;;;5.55;5.05;;;;;;;;;;4826904;29;20082;-79
2022/07/23 05:12:34;;;;;;;13.77;6.50;;;;;;;;;;4842016;29;20534;-79
2022/07/23 05:15:00;;;;;;;7.13;6.13;;;;;;;;;;4856857;29;20065;-79
2022/07/23 05:17:26;;;;;;;6.93;6.22;;;;;;;;;;4872538;29;20052;-78
2022/07/23 05:19:52;;;;;;;6.20;5.63;;;;;;;;;;4872106;29;20136;-78
2022/07/23 05:22:18;;;;;;;6.57;5.57;;;;;;;;;;4841613;29;20141;-78
2022/07/23 05:24:44;;;;;;;7.32;6.60;;;;;;;;;;4872196;29;20058;-77
2022/07/23 05:27:11;;;;;;;7.38;6.60;;;;;;;;;;4841715;29;20557;-78
2022/07/23 05:29:37;;;;;;;7.88;6.10;;;;;;;;;;4841205;29;20073;-78
2022/07/23 05:32:03;;;;;;;6.05;5.65;;;;;;;;;;4841521;29;20128;-77
2022/07/23 05:34:30;;;;;;;7.28;6.22;;;;;;;;;;4842081;29;20088;-77
2022/07/23 05:36:58;;;;;;;5.60;5.10;;;;;;;;;;4853914;29;20101;-78
2022/07/23 05:39:24;;;;;;;10.40;6.20;;;;;;;;;;4862467;29;20053;-78
2022/07/23 05:41:50;;;;;;;8.77;6.25;;;;;;;;;;4859727;29;20045;-79
2022/07/23 05:44:16;;;;;;;8.30;6.30;;;;;;;;;;4826244;29;20057;-79
2022/07/23 05:46:44;;;;;;;9.85;5.65;;;;;;;;;;4871921;29;20222;-78
2022/07/23 05:49:14;;;;;;;9.48;6.07;;;;;;;;;;4841327;29;20100;-76
2022/07/23 05:52:15;;;;;;;8.95;6.50;;;;;;;;;;4841442;29;20049;-78
2022/07/23 05:55:01;;;;;;;8.98;6.05;;;;;;;;;;4831769;29;20060;-79
2022/07/23 05:57:28;;;;;;;13.10;5.60;;;;;;;;;;4871903;29;20049;-79
2022/07/23 05:59:54;;;;;;;8.57;5.70;;;;;;;;;;4842195;29;20081;-79
2022/07/23 06:02:20;;;;;;;9.00;5.97;;;;;;;;;;4843534;29;20081;-78
2022/07/23 06:04:46;;;;;;;6.97;6.38;;;;;;;;;;4872120;29;20160;-79
2022/07/23 06:07:24;;;;;;;7.57;5.75;;;;;;;;;;4841292;29;20144;-79
2022/07/23 06:09:50;;;;;;;7.35;5.93;;;;;;;;;;4871426;29;20053;-79
2022/07/23 06:12:16;;;;;;;8.68;5.72;;;;;;;;;;4841117;29;20046;-78
2022/07/23 06:14:43;;;;;;;6.38;5.78;;;;;;;;;;4871191;29;20037;-80
2022/07/23 06:17:08;;;;;;;7.72;5.07;;;;;;;;;;4857627;29;20046;-77
2022/07/23 06:19:35;;;;;;;7.50;5.60;;;;;;;;;;4871615;29;20150;-79
2022/07/23 06:22:02;;;;;;;8.02;5.30;;;;;;;;;;4871442;29;20099;-79
2022/07/23 06:24:28;;;;;;;9.90;6.20;;;;;;;;;;4825505;29;20042;-78
2022/07/23 06:26:54;;;;;;;9.57;6.03;;;;;;;;;;4840627;29;20048;-76
2022/07/23 06:29:20;;;;;;;9.30;5.78;;;;;;;;;;4871596;29;20049;-78
2022/07/23 06:31:46;;;;;;;7.53;5.93;;;;;;;;;;4840390;29;20054;-79
2022/07/23 06:34:14;;;;;;;7.10;5.95;;;;;;;;;;4840751;29;20038;-79
2022/07/23 06:36:39;;;;;;;6.90;5.60;;;;;;;;;;4840912;29;20510;-79
2022/07/23 06:39:05;;;;;;;6.15;5.55;;;;;;;;;;4856916;29;20387;-77
2022/07/23 06:41:31;;;;;;;10.48;5.95;;;;;;;;;;4860514;29;20049;-77
2022/07/23 06:43:57;;;;;;;9.30;5.78;;;;;;;;;;4860664;29;20532;-78
2022/07/23 06:46:23;;;;;;;5.60;5.15;;;;;;;;;;4844346;29;20129;-77
2022/07/23 06:48:50;;;;;;;5.43;5.10;;;;;;;;;;4843721;29;20426;-80
2022/07/23 06:51:15;;;;;;;5.97;5.47;;;;;;;;;;4860826;29;20141;-78
2022/07/23 06:53:41;;;;;;;6.40;5.80;;;;;;;;;;4860640;29;20049;-79
2022/07/23 06:56:08;;;;;;;5.80;5.40;;;;;;;;;;4874645;29;20457;-78
2022/07/23 06:58:34;;;;;;;6.38;5.93;;;;;;;;;;4874709;29;20050;-76
2022/07/23 07:01:00;;;;;;;5.97;5.47;;;;;;;;;;4860249;29;20049;-77
2022/07/23 07:03:26;;;;;;;6.60;6.00;;;;;;;;;;4844042;29;20057;-81
2022/07/23 07:05:53;;;;;;;6.43;5.82;;;;;;;;;;4860303;29;20095;-77
2022/07/23 07:08:18;;;;;;;7.18;5.82;;;;;;;;;;4860443;29;20053;-77
2022/07/23 07:10:44;;;;;;;6.18;5.57;;;;;;;;;;4860402;29;20045;-79
2022/07/23 07:13:11;;;;;;;7.57;5.93;;;;;;;;;;4860525;29;20053;-78
2022/07/23 07:15:36;;;;;;;7.88;6.35;;;;;;;;;;4860199;29;20084;-78
2022/07/23 07:18:03;;;;;;;7.03;6.38;;;;;;;;;;4859973;29;20077;-78
2022/07/23 07:20:29;;;;;;;10.00;7.28;;;;;;;;;;4860489;29;20096;-78
2022/07/23 07:22:55;;;;;;;6.65;6.00;;;;;;;;;;4860105;29;20057;-77
2022/07/23 07:25:21;;;;;;;7.78;6.07;;;;;;;;;;4874846;29;20042;-78
2022/07/23 07:27:47;;;;;;;8.13;6.20;;;;;;;;;;4876097;29;20090;-79
2022/07/23 07:30:12;;;;;;;6.55;5.95;;;;;;;;;;4853168;29;20132;-79
2022/07/23 07:32:38;;;;;;;8.40;6.32;;;;;;;;;;4860312;29;20049;-78
2022/07/23 07:35:04;;;;;;;6.55;6.03;;;;;;;;;;4860620;29;20042;-78
2022/07/23 07:37:31;;;;;;;6.75;6.05;;;;;;;;;;4864420;29;20122;-79
2022/07/23 07:39:56;;;;;;;7.75;5.95;;;;;;;;;;4868590;29;20547;-79
2022/07/23 07:42:22;;;;;;;6.88;6.05;;;;;;;;;;4872390;29;20047;-77
2022/07/23 07:44:48;;;;;;;6.35;5.82;;;;;;;;;;4849529;29;20136;-78
2022/07/23 07:47:15;;;;;;;7.03;6.28;;;;;;;;;;4860447;29;20037;-79
2022/07/23 07:49:44;;;;;;;7.15;6.63;;;;;;;;;;4874120;29;20510;-79
2022/07/23 07:52:14;;;;;;;6.25;5.68;;;;;;;;;;4858821;29;20518;-78
2022/07/23 07:54:40;;;;;;;6.80;6.18;;;;;;;;;;4859961;29;20057;-78
2022/07/23 07:57:05;;;;;;;9.13;6.72;;;;;;;;;;4859768;29;20097;-78
2022/07/23 07:59:31;;;;;;;7.85;7.15;;;;;;;;;;4843083;29;20053;-77
2022/07/23 08:01:57;;;;;;;7.60;6.82;;;;;;;;;;4859223;29;20137;-79
2022/07/23 08:04:23;;;;;;;9.65;6.28;;;;;;;;;;4858205;29;20057;-77
2022/07/23 08:06:49;;;;;;;6.63;6.18;;;;;;;;;;4859274;29;20068;-81
2022/07/23 08:09:15;;;;;;;6.88;6.28;;;;;;;;;;4859131;29;20546;-76
2022/07/23 08:11:41;;;;;;;7.60;6.40;;;;;;;;;;4859166;29;20050;-78
2022/07/23 08:14:07;;;;;;;7.03;6.53;;;;;;;;;;4873339;29;20049;-80
2022/07/23 08:16:33;;;;;;;6.90;6.40;;;;;;;;;;4842852;29;20052;-78
2022/07/23 08:18:59;;;;;;;7.93;7.10;;;;;;;;;;4858282;29;20061;-80
2022/07/23 08:21:25;;;;;;;10.07;9.00;;;;;;;;;;4859003;29;20052;-80
2022/07/23 08:23:51;;;;;;;12.50;10.20;;;;;;;;;;4842285;29;20057;-79
2022/07/23 08:26:17;;;;;;;8.90;8.10;;;;;;;;;;4858917;29;20049;-79
2022/07/23 08:28:43;;;;;;;8.68;7.97;;;;;;;;;;4873182;29;20064;-79
2022/07/23 08:31:10;;;;;;;8.38;7.60;;;;;;;;;;4858691;29;20125;-79
2022/07/23 08:33:36;;;;;;;10.40;8.50;;;;;;;;;;4859229;29;20068;-79
2022/07/23 08:36:03;;;;;;;7.85;7.25;;;;;;;;;;4858941;29;20510;-78
2022/07/23 08:38:29;;;;;;;8.13;7.43;;;;;;;;;;4858916;29;20068;-81
2022/07/23 08:40:57;;;;;;;6.95;6.45;;;;;;;;;;4842088;29;20507;-79
2022/07/23 08:43:24;;;;;;;8.05;7.35;;;;;;;;;;4858579;29;20041;-81
2022/07/23 08:45:51;;;;;;;8.57;7.60;;;;;;;;;;4872865;29;20479;-80
2022/07/23 08:48:18;;;;;;;8.15;7.35;;;;;;;;;;4841978;29;20470;-80
2022/07/23 08:50:46;;;;;;;7.50;6.90;;;;;;;;;;4858559;29;20419;-81
2022/07/23 08:53:13;;;;;;;7.25;6.75;;;;;;;;;;4858482;29;20057;-81
2022/07/23 08:55:39;;;;;;;8.88;7.05;;;;;;;;;;4841769;29;20477;-80
2022/07/23 08:58:05;;;;;;;8.20;6.78;;;;;;;;;;4858184;29;20113;-81
2022/07/23 09:00:31;;;;;;;7.45;6.80;;;;;;;;;;4858409;29;20144;-81
2022/07/23 09:02:57;;;;;;;7.60;7.00;;;;;;;;;;4856573;29;20410;-81
2022/07/23 09:05:23;;;;;;;12.32;6.82;;;;;;;;;;4841747;29;20049;-81
2022/07/23 09:08:04;;;;;;;7.90;7.20;;;;;;;;;;4858365;29;20053;-81
2022/07/23 09:10:31;;;;;;;8.25;6.72;;;;;;;;;;4858349;29;20109;-81
2022/07/23 09:12:57;;;;;;;9.93;7.18;;;;;;;;;;4872164;29;20057;-80
2022/07/23 09:15:23;;;;;;;7.43;6.90;;;;;;;;;;4858524;29;20463;-80
2022/07/23 09:17:48;;;;;;;7.80;7.10;;;;;;;;;;4859525;29;20053;-81
2022/07/23 09:20:15;;;;;;;8.07;7.35;;;;;;;;;;4865591;29;20068;-79
2022/07/23 09:22:45;;;;;;;10.85;9.90;;;;;;;;;;4864489;29;20049;-80
2022/07/23 09:25:13;;;;;;;8.93;8.23;;;;;;;;;;4872159;29;20426;-81
2022/07/23 09:27:49;;;;;;;9.15;8.45;;;;;;;;;;4858274;29;20158;-80
2022/07/23 09:30:16;;;;;;;8.50;7.72;;;;;;;;;;4857697;29;20042;-80
2022/07/23 09:32:42;;;;;;;7.93;7.25;;;;;;;;;;4872303;29;20068;-81
2022/07/23 09:35:08;;;;;;;7.95;7.35;;;;;;;;;;4857662;29;20060;-80
2022/07/23 09:37:34;;;;;;;7.32;6.82;;;;;;;;;;4857992;29;20041;-81
2022/07/23 09:40:04;;;;;;;8.48;7.68;;;;;;;;;;4857466;29;20430;-81
2022/07/23 09:42:30;;;;;;;7.78;7.13;;;;;;;;;;4858108;29;20072;-81
2022/07/23 09:44:56;;;;;;;8.05;7.45;;;;;;;;;;4857750;29;20072;-80
2022/07/23 09:47:23;;;;;;;8.40;7.38;;;;;;;;;;4872287;29;20525;-81
2022/07/23 09:50:04;;;;;;;7.90;7.10;;;;;;;;;;4857823;29;20108;-81
2022/07/23 09:52:30;;;;;;;8.02;7.43;;;;;;;;;;4857696;29;20478;-80
2022/07/23 09:55:00;;;;;;;7.97;7.25;;;;;;;;;;4857411;29;20367;-80
2022/07/23 09:57:26;;;;;;;8.02;7.22;;;;;;;;;;4857917;29;20053;-81
2022/07/23 09:59:52;;;;;;;7.95;7.25;;;;;;;;;;4857740;29;20130;-82
2022/07/23 10:02:18;;;;;;;8.32;7.57;;;;;;;;;;4857517;29;20050;-80
2022/07/23 10:05:10;;;;;;;7.32;6.82;;;;;;;;;;4835260;29;20057;-81
2022/07/23 10:08:05;;;;;;;7.80;7.00;;;;;;;;;;4845329;29;20054;-81
2022/07/23 10:10:49;;;;;;;7.65;6.93;;;;;;;;;;4854331;29;20414;-80
2022/07/23 10:13:54;;;;;;;14.23;8.40;;;;;;;;;;4857805;29;20053;-81
2022/07/23 10:16:27;;;;;;;8.45;7.78;;;;;;;;;;4875197;29;20128;-81
2022/07/23 10:18:53;;;;;;;11.40;7.82;;;;;;;;;;4861101;29;20148;-81
2022/07/23 10:21:21;;;;;;;8.82;8.13;;;;;;;;;;4861078;29;20118;-81
2022/07/23 10:24:05;;;;;;;8.48;7.78;;;;;;;;;;4859598;29;20442;-80
2022/07/23 10:26:40;;;;;;;8.20;7.55;;;;;;;;;;4861084;29;20050;-81
2022/07/23 10:29:10;;;;;;;8.45;7.68;;;;;;;;;;4860435;29;20072;-81
2022/07/23 10:31:55;;;;;;;7.55;6.90;;;;;;;;;;4860035;29;20068;-80
2022/07/23 10:34:25;;;;;;;8.02;7.43;;;;;;;;;;4860788;29;20074;-80
2022/07/23 10:36:51;;;;;;;8.43;7.65;;;;;;;;;;4865220;29;20053;-81
2022/07/23 10:39:24;;;;;;;8.07;7.47;;;;;;;;;;4872715;29;20152;-80
2022/07/23 10:41:50;;;;;;;8.68;7.97;;;;;;;;;;4869772;29;20145;-80
2022/07/23 10:44:22;;;;;;;8.98;8.10;;;;;;;;;;4860864;29;20086;-79
2022/07/23 10:49:27;;;;;;;8.48;7.63;;;;;;;;;;4844212;29;20046;-79
2022/07/23 10:52:23;;;;;;;8.60;7.90;;;;;;;;;;4875320;29;20080;-80
2022/07/23 10:54:53;;;;;;;8.05;7.35;;;;;;;;;;4852611;29;20049;-79
2022/07/23 10:57:20;;;;;;;8.45;7.78;;;;;;;;;;4860611;29;20048;-79
2022/07/23 11:00:02;;;;;;;8.55;7.75;;;;;;;;;;4860755;29;20121;-80
2022/07/23 11:02:30;;;;;;;8.30;7.60;;;;;;;;;;4862089;29;20041;-79
2022/07/23 11:05:00;;;;;;;8.43;7.60;;;;;;;;;;4866901;29;20125;-76
2022/07/23 11:07:26;;;;;;;8.30;7.55;;;;;;;;;;4875981;29;20041;-80
2022/07/23 11:09:53;;;;;;;9.15;7.72;;;;;;;;;;4861568;29;20056;-78
2022/07/23 11:12:19;;;;;;;8.35;7.65;;;;;;;;;;4875095;29;20046;-80
2022/07/23 11:15:04;;;;;;;8.55;7.95;;;;;;;;;;4846366;29;20049;-79
2022/07/23 11:17:32;;;;;;;7.88;7.28;;;;;;;;;;4860691;29;20443;-79
2022/07/23 11:20:11;;;;;;;7.88;7.15;;;;;;;;;;4860246;29;20565;-79
2022/07/23 11:22:37;;;;;;;;;;;;;;;;;;4860710;29;20057;-79
2022/07/23 11:25:03;;;;;;;9.45;7.68;;;;;;;;;;4843705;29;19923;-80
2022/07/23 11:27:42;;;;;;;7.97;7.28;;;;;;;;;;4842430;29;20049;-80
2022/07/23 11:30:08;;;;;;;8.23;7.70;;;;;;;;;;4859703;29;20049;-78
2022/07/23 11:32:36;;;;;;;12.30;8.30;;;;;;;;;;4859030;29;20523;-81
2022/07/23 11:35:03;;;;;;;8.98;8.18;;;;;;;;;;4859687;29;20050;-81
2022/07/23 11:37:31;;;;;;;11.15;8.77;;;;;;;;;;4874373;29;20076;-79
2022/07/23 11:39:57;;;;;;;10.23;8.07;;;;;;;;;;4859654;29;20064;-81
2022/07/23 11:42:23;;;;;;;8.05;7.32;;;;;;;;;;4873785;29;20151;-79
2022/07/23 11:44:49;;;;;;;8.27;7.63;;;;;;;;;;4859743;29;20132;-80
2022/07/23 11:47:16;;;;;;;9.00;8.30;;;;;;;;;;4858211;29;20037;-79
2022/07/23 11:49:54;;;;;;;8.70;7.95;;;;;;;;;;4858074;29;20049;-81
2022/07/23 11:52:20;;;;;;;17.77;10.65;;;;;;;;;;4859891;29;20050;-78
2022/07/23 11:54:53;;;;;;;10.82;9.80;;;;;;;;;;4859631;29;20422;-80
2022/07/23 11:57:19;;;;;;;9.98;8.98;;;;;;;;;;4859720;29;20073;-80
2022/07/23 11:59:45;;;;;;;9.48;8.70;;;;;;;;;;4859397;29;20117;-79
2022/07/23 12:02:11;;;;;;;8.80;8.00;;;;;;;;;;4859522;29;20049;-80
2022/07/23 12:04:38;;;;;;;8.48;7.68;;;;;;;;;;4859167;29;20068;-79
2022/07/23 12:07:04;;;;;;;9.43;8.13;;;;;;;;;;4859062;29;20138;-80
2022/07/23 12:09:30;;;;;;;8.23;7.63;;;;;;;;;;4859687;29;20050;-81
2022/07/23 12:11:57;;;;;;;9.52;8.13;;;;;;;;;;4859615;29;20049;-78
2022/07/23 12:14:23;;;;;;;8.80;8.02;;;;;;;;;;4858937;29;20045;-79
2022/07/23 12:17:10;;;;;;;8.90;8.07;;;;;;;;;;4859155;29;20105;-80
2022/07/23 12:19:36;;;;;;;8.48;7.82;;;;;;;;;;4873344;29;20064;-80
2022/07/23 12:22:01;;;;;;;9.25;8.50;;;;;;;;;;4873398;29;20094;-79
2022/07/23 12:24:27;;;;;;;9.57;8.57;;;;;;;;;;4872934;29;20049;-80
2022/07/23 12:27:09;;;;;;;10.63;8.80;;;;;;;;;;4859046;29;20114;-81
2022/07/23 12:29:36;;;;;;;9.25;8.52;;;;;;;;;;4858904;29;20069;-80
2022/07/23 12:32:02;;;;;;;9.52;8.60;;;;;;;;;;4859059;29;20049;-79
2022/07/23 12:34:28;;;;;;;9.13;8.43;;;;;;;;;;4872714;29;20050;-79
2022/07/23 12:36:53;;;;;;;8.63;7.82;;;;;;;;;;4858831;29;20049;-79
2022/07/23 12:39:29;;;;;;;8.77;7.97;;;;;;;;;;4841647;29;20061;-80
2022/07/23 12:41:56;;;;;;;8.98;8.18;;;;;;;;;;4857710;29;20073;-80
2022/07/23 12:44:22;;;;;;;10.23;9.40;;;;;;;;;;4862008;29;20113;-79
2022/07/23 12:46:51;;;;;;;10.55;8.57;;;;;;;;;;4859551;29;20072;-80
2022/07/23 12:49:17;;;;;;;;;;;;;;;;;;4858857;29;20480;-80
2022/07/23 12:51:43;;;;;;;8.80;8.10;;;;;;;;;;4858680;29;19916;-79
2022/07/23 12:54:09;;;;;;;10.45;8.93;;;;;;;;;;4858034;29;20041;-80
2022/07/23 12:56:44;;;;;;;15.35;8.73;;;;;;;;;;4858812;29;20097;-80
2022/07/23 12:59:11;;;;;;;11.50;10.05;;;;;;;;;;4858808;29;20365;-81
2022/07/23 13:01:38;;;;;;;14.00;10.25;;;;;;;;;;4885636;29;20045;-78
2022/07/23 13:04:10;;;;;;;9.02;8.30;;;;;;;;;;4880313;29;20057;-80
2022/07/23 13:06:37;;;;;;;8.70;8.05;;;;;;;;;;4859567;29;20427;-78
2022/07/23 13:09:04;;;;;;;8.95;8.20;;;;;;;;;;4858301;29;20114;-81
2022/07/23 13:11:30;;;;;;;8.85;7.60;;;;;;;;;;4858256;29;20085;-80
2022/07/23 13:13:56;;;;;;;8.68;7.97;;;;;;;;;;4858152;29;20072;-79
2022/07/23 13:16:22;;;;;;;9.98;8.82;;;;;;;;;;4858193;29;20101;-79
2022/07/23 13:18:48;;;;;;;9.07;8.27;;;;;;;;;;4872390;29;20048;-80
2022/07/23 13:21:14;;;;;;;10.48;7.97;;;;;;;;;;4858009;29;20120;-80
2022/07/23 13:23:39;;;;;;;8.98;8.13;;;;;;;;;;4872978;29;20144;-80
2022/07/23 13:26:05;;;;;;;11.98;7.80;;;;;;;;;;4841995;29;20573;-80
2022/07/23 13:28:31;;;;;;;9.48;7.75;;;;;;;;;;4858764;29;20423;-81
2022/07/23 13:30:57;;;;;;;8.05;7.35;;;;;;;;;;4860998;29;20049;-80
2022/07/23 13:33:23;;;;;;;8.88;8.07;;;;;;;;;;4858835;29;20041;-78
2022/07/23 13:35:50;;;;;;;8.98;8.07;;;;;;;;;;4852688;29;20057;-79
2022/07/23 13:38:16;;;;;;;13.48;8.10;;;;;;;;;;4867551;29;20049;-80
2022/07/23 13:40:42;;;;;;;9.63;7.57;;;;;;;;;;4861473;29;20064;-80
2022/07/23 13:43:14;;;;;;;8.30;7.60;;;;;;;;;;4858420;29;20045;-81
2022/07/23 13:45:41;;;;;;;9.95;7.40;;;;;;;;;;4858544;29;20078;-81
2022/07/23 13:48:07;;;;;;;8.27;7.60;;;;;;;;;;4872678;29;20045;-79
2022/07/23 13:50:33;;;;;;;8.30;7.60;;;;;;;;;;4857864;29;20092;-79
2022/07/23 13:53:06;;;;;;;7.95;7.25;;;;;;;;;;4858253;29;20499;-81
2022/07/23 13:55:32;;;;;;;7.90;7.40;;;;;;;;;;4858437;29;20118;-79
2022/07/23 13:57:58;;;;;;;8.43;7.47;;;;;;;;;;4858567;29;20046;-79
2022/07/23 14:00:23;;;;;;;14.38;8.60;;;;;;;;;;4841746;29;20058;-79
2022/07/23 14:02:49;;;;;;;11.80;8.02;;;;;;;;;;4872371;29;20531;-81
2022/07/23 14:05:15;;;;;;;9.23;7.53;;;;;;;;;;4857563;29;20448;-80
2022/07/23 14:07:44;;;;;;;10.00;7.95;;;;;;;;;;4841606;29;20046;-80
2022/07/23 14:10:10;;;;;;;10.68;7.78;;;;;;;;;;4857976;29;20535;-82
2022/07/23 14:12:36;;;;;;;8.40;7.68;;;;;;;;;;4872246;29;20077;-80
2022/07/23 14:15:02;;;;;;;9.10;7.63;;;;;;;;;;4858201;29;20132;-80
2022/07/23 14:17:29;;;;;;;8.85;8.25;;;;;;;;;;4826218;29;20046;-80
2022/07/23 14:19:55;;;;;;;8.98;8.35;;;;;;;;;;4857808;29;20057;-79
2022/07/23 14:22:21;;;;;;;10.68;7.85;;;;;;;;;;4858157;29;20068;-79
2022/07/23 14:24:46;;;;;;;8.90;7.50;;;;;;;;;;4862158;29;20042;-79
2022/07/23 14:27:12;;;;;;;7.60;7.00;;;;;;;;;;4858407;29;20543;-79
2022/07/23 14:29:38;;;;;;;7.82;7.22;;;;;;;;;;4858058;29;20058;-80
2022/07/23 14:32:04;;;;;;;9.07;8.13;;;;;;;;;;4841442;29;20041;-81
2022/07/23 14:34:30;;;;;;;10.40;8.20;;;;;;;;;;4840893;29;20130;-80
2022/07/23 14:36:56;;;;;;;8.75;7.93;;;;;;;;;;4858612;29;20046;-82
2022/07/23 14:39:22;;;;;;;8.35;7.38;;;;;;;;;;4872181;29;20056;-81
2022/07/23 14:41:48;;;;;;;7.57;6.97;;;;;;;;;;4872133;29;20053;-82
2022/07/23 14:44:13;;;;;;;8.80;7.70;;;;;;;;;;4857237;29;20068;-81